sensor_id;sensor_type;location;lat;lon;timestamp;temperature;humidity
7676;DHT22;3880;51.464;-2.566;2022-07-29T02:00:46;17.60;99.90
7676;DHT22;3880;51.464;-2.566;2022-07-29T09:26:13;25.30;99.90
7676;DHT22;3880;51.464;-2.566;2022-07-29T09:28:47;26.40;99.90
7676;DHT22;3880;51.464;-2.566;2022-07-29T09:31:14;28.00;99.90
7676;DHT22;3880;51.464;-2.566;2022-07-29T11:37:22;36.90;81.90
7676;DHT22;3880;51.464;-2.566;2022-07-29T11:40:10;38.20;80.60
7676;DHT22;3880;51.464;-2.566;2022-07-29T11:42:54;38.20;80.70
7676;DHT22;3880;51.464;-2.566;2022-07-29T11:45:46;38.10;80.00
7676;DHT22;3880;51.464;-2.566;2022-07-29T11:51:09;39.40;78.90
7676;DHT22;3880;51.464;-2.566;2022-07-29T11:54:03;38.40;77.20
7676;DHT22;3880;51.464;-2.566;2022-07-29T11:56:53;38.20;76.70
7676;DHT22;3880;51.464;-2.566;2022-07-29T12:01:57;37.70;75.30
7676;DHT22;3880;51.464;-2.566;2022-07-29T12:04:27;38.30;75.00
7676;DHT22;3880;51.464;-2.566;2022-07-29T12:07:00;38.50;75.50
7676;DHT22;3880;51.464;-2.566;2022-07-29T12:09:34;38.80;73.80
7676;DHT22;3880;51.464;-2.566;2022-07-29T12:12:06;38.80;74.80
7676;DHT22;3880;51.464;-2.566;2022-07-29T12:15:07;38.40;75.40
7676;DHT22;3880;51.464;-2.566;2022-07-29T12:34:11;38.10;67.50
7676;DHT22;3880;51.464;-2.566;2022-07-29T12:36:42;36.50;68.20
7676;DHT22;3880;51.464;-2.566;2022-07-29T12:39:20;35.80;69.30
7676;DHT22;3880;51.464;-2.566;2022-07-29T12:41:48;36.00;69.50
7676;DHT22;3880;51.464;-2.566;2022-07-29T12:44:43;36.30;68.70
7676;DHT22;3880;51.464;-2.566;2022-07-29T12:47:11;36.20;69.30
7676;DHT22;3880;51.464;-2.566;2022-07-29T12:49:39;36.10;69.50
7676;DHT22;3880;51.464;-2.566;2022-07-29T12:52:27;35.40;68.80
7676;DHT22;3880;51.464;-2.566;2022-07-29T12:54:55;36.70;69.10
7676;DHT22;3880;51.464;-2.566;2022-07-29T12:57:23;38.20;69.40
7676;DHT22;3880;51.464;-2.566;2022-07-29T13:00:14;38.90;68.80
7676;DHT22;3880;51.464;-2.566;2022-07-29T13:02:42;38.90;67.70
7676;DHT22;3880;51.464;-2.566;2022-07-29T13:05:12;39.70;67.80
7676;DHT22;3880;51.464;-2.566;2022-07-29T13:07:39;39.40;66.20
7676;DHT22;3880;51.464;-2.566;2022-07-29T13:10:11;39.20;66.80
7676;DHT22;3880;51.464;-2.566;2022-07-29T13:12:54;40.30;66.60
7676;DHT22;3880;51.464;-2.566;2022-07-29T13:15:27;40.60;65.70
7676;DHT22;3880;51.464;-2.566;2022-07-29T13:17:54;39.30;65.20
7676;DHT22;3880;51.464;-2.566;2022-07-29T13:20:26;38.50;65.70
7676;DHT22;3880;51.464;-2.566;2022-07-29T13:22:57;37.10;67.20
7676;DHT22;3880;51.464;-2.566;2022-07-29T13:25:26;37.10;66.70
7676;DHT22;3880;51.464;-2.566;2022-07-29T13:27:54;36.30;66.60
7676;DHT22;3880;51.464;-2.566;2022-07-29T13:30:22;36.80;67.50
7676;DHT22;3880;51.464;-2.566;2022-07-29T13:32:51;38.30;67.00
7676;DHT22;3880;51.464;-2.566;2022-07-29T13:35:19;38.40;66.20
7676;DHT22;3880;51.464;-2.566;2022-07-29T13:37:50;37.40;65.90
7676;DHT22;3880;51.464;-2.566;2022-07-29T13:40:18;36.10;66.70
7676;DHT22;3880;51.464;-2.566;2022-07-29T13:42:45;34.50;67.70
7676;DHT22;3880;51.464;-2.566;2022-07-29T13:45:13;33.80;69.40
7676;DHT22;3880;51.464;-2.566;2022-07-29T13:47:40;33.00;70.70
7676;DHT22;3880;51.464;-2.566;2022-07-29T13:50:08;32.50;70.70
7676;DHT22;3880;51.464;-2.566;2022-07-29T13:52:36;33.50;70.90
7676;DHT22;3880;51.464;-2.566;2022-07-29T13:55:07;33.20;70.10
7676;DHT22;3880;51.464;-2.566;2022-07-29T13:57:35;32.50;69.80
7676;DHT22;3880;51.464;-2.566;2022-07-29T14:00:02;31.80;71.10
7676;DHT22;3880;51.464;-2.566;2022-07-29T14:02:30;32.00;71.60
7676;DHT22;3880;51.464;-2.566;2022-07-29T14:04:59;31.50;72.50
7676;DHT22;3880;51.464;-2.566;2022-07-29T14:07:26;31.60;73.20
7676;DHT22;3880;51.464;-2.566;2022-07-29T14:09:53;31.90;74.40
7676;DHT22;3880;51.464;-2.566;2022-07-29T14:12:21;32.80;73.00
7676;DHT22;3880;51.464;-2.566;2022-07-29T14:14:49;32.90;71.10
7676;DHT22;3880;51.464;-2.566;2022-07-29T14:17:16;34.30;71.10
7676;DHT22;3880;51.464;-2.566;2022-07-29T14:19:43;34.40;70.50
7676;DHT22;3880;51.464;-2.566;2022-07-29T14:22:10;33.90;70.20
7676;DHT22;3880;51.464;-2.566;2022-07-29T14:24:38;33.70;70.50
7676;DHT22;3880;51.464;-2.566;2022-07-29T14:27:06;34.00;70.20
7676;DHT22;3880;51.464;-2.566;2022-07-29T14:29:35;33.10;70.40
7676;DHT22;3880;51.464;-2.566;2022-07-29T14:32:03;32.50;71.80
7676;DHT22;3880;51.464;-2.566;2022-07-29T14:34:30;32.00;71.60
7676;DHT22;3880;51.464;-2.566;2022-07-29T14:36:57;31.90;71.40
7676;DHT22;3880;51.464;-2.566;2022-07-29T14:39:24;31.50;70.40
7676;DHT22;3880;51.464;-2.566;2022-07-29T14:41:51;31.20;73.70
7676;DHT22;3880;51.464;-2.566;2022-07-29T14:44:33;32.20;77.00
7676;DHT22;3880;51.464;-2.566;2022-07-29T14:47:19;33.10;78.30
7676;DHT22;3880;51.464;-2.566;2022-07-29T14:49:47;33.70;77.40
7676;DHT22;3880;51.464;-2.566;2022-07-29T14:52:23;34.30;77.20
7676;DHT22;3880;51.464;-2.566;2022-07-29T14:54:50;34.60;77.50
7676;DHT22;3880;51.464;-2.566;2022-07-29T14:57:18;35.10;75.90
7676;DHT22;3880;51.464;-2.566;2022-07-29T14:59:45;34.90;76.30
7676;DHT22;3880;51.464;-2.566;2022-07-29T15:02:12;34.90;76.20
7676;DHT22;3880;51.464;-2.566;2022-07-29T15:04:41;34.20;77.10
7676;DHT22;3880;51.464;-2.566;2022-07-29T15:07:11;33.60;77.50
7676;DHT22;3880;51.464;-2.566;2022-07-29T15:09:39;32.60;78.90
7676;DHT22;3880;51.464;-2.566;2022-07-29T15:12:06;33.10;79.80
7676;DHT22;3880;51.464;-2.566;2022-07-29T15:14:34;33.30;79.80
7676;DHT22;3880;51.464;-2.566;2022-07-29T15:17:01;34.00;79.30
7676;DHT22;3880;51.464;-2.566;2022-07-29T15:19:28;34.10;78.80
7676;DHT22;3880;51.464;-2.566;2022-07-29T15:25:46;33.20;79.60
7676;DHT22;3880;51.464;-2.566;2022-07-29T15:28:18;32.10;81.40
7676;DHT22;3880;51.464;-2.566;2022-07-29T15:31:03;31.70;82.40
7676;DHT22;3880;51.464;-2.566;2022-07-29T15:33:33;31.70;83.40
7676;DHT22;3880;51.464;-2.566;2022-07-29T15:36:08;31.30;82.80
7676;DHT22;3880;51.464;-2.566;2022-07-29T15:38:44;31.00;83.50
7676;DHT22;3880;51.464;-2.566;2022-07-29T15:41:18;30.40;84.80
7676;DHT22;3880;51.464;-2.566;2022-07-29T15:53:44;30.90;85.70
7676;DHT22;3880;51.464;-2.566;2022-07-29T15:56:26;31.00;85.90
7676;DHT22;3880;51.464;-2.566;2022-07-29T15:58:55;30.60;85.20
7676;DHT22;3880;51.464;-2.566;2022-07-29T16:01:26;30.10;86.10
7676;DHT22;3880;51.464;-2.566;2022-07-29T16:03:59;30.10;86.50
7676;DHT22;3880;51.464;-2.566;2022-07-29T16:06:29;30.30;85.10
7676;DHT22;3880;51.464;-2.566;2022-07-29T16:08:57;29.40;84.90
7676;DHT22;3880;51.464;-2.566;2022-07-29T16:11:26;29.30;85.90
7676;DHT22;3880;51.464;-2.566;2022-07-29T16:13:53;28.90;86.60
7676;DHT22;3880;51.464;-2.566;2022-07-29T16:16:20;28.70;87.30
7676;DHT22;3880;51.464;-2.566;2022-07-29T16:18:47;28.60;87.50
7676;DHT22;3880;51.464;-2.566;2022-07-29T16:21:15;28.50;87.30
7676;DHT22;3880;51.464;-2.566;2022-07-29T16:23:42;28.40;86.70
7676;DHT22;3880;51.464;-2.566;2022-07-29T16:26:09;28.20;86.40
7676;DHT22;3880;51.464;-2.566;2022-07-29T16:28:38;28.20;86.40
7676;DHT22;3880;51.464;-2.566;2022-07-29T16:31:05;28.40;85.80
7676;DHT22;3880;51.464;-2.566;2022-07-29T16:33:32;28.50;85.10
7676;DHT22;3880;51.464;-2.566;2022-07-29T16:35:59;28.60;84.60
7676;DHT22;3880;51.464;-2.566;2022-07-29T16:38:30;28.40;84.60
7676;DHT22;3880;51.464;-2.566;2022-07-29T16:40:58;28.50;85.10
7676;DHT22;3880;51.464;-2.566;2022-07-29T16:43:25;28.60;85.20
7676;DHT22;3880;51.464;-2.566;2022-07-29T16:45:57;28.50;84.80
7676;DHT22;3880;51.464;-2.566;2022-07-29T16:48:30;28.40;84.50
7676;DHT22;3880;51.464;-2.566;2022-07-29T16:57:36;28.40;84.30
7676;DHT22;3880;51.464;-2.566;2022-07-29T17:00:04;28.60;84.50
7676;DHT22;3880;51.464;-2.566;2022-07-29T17:02:34;28.90;84.50
7676;DHT22;3880;51.464;-2.566;2022-07-29T17:05:04;28.80;82.90
7676;DHT22;3880;51.464;-2.566;2022-07-29T17:07:35;29.20;81.70
7676;DHT22;3880;51.464;-2.566;2022-07-29T17:10:05;29.60;80.70
7676;DHT22;3880;51.464;-2.566;2022-07-29T17:12:38;29.60;80.20
7676;DHT22;3880;51.464;-2.566;2022-07-29T17:15:09;30.10;79.00
7676;DHT22;3880;51.464;-2.566;2022-07-29T17:17:44;29.60;78.10
7676;DHT22;3880;51.464;-2.566;2022-07-29T17:20:17;29.50;78.40
7676;DHT22;3880;51.464;-2.566;2022-07-29T17:23:17;29.80;78.40
7676;DHT22;3880;51.464;-2.566;2022-07-29T19:38:48;23.80;99.90
7676;DHT22;3880;51.464;-2.566;2022-07-29T20:41:17;22.40;99.90
7676;DHT22;3880;51.464;-2.566;2022-07-29T20:43:44;22.30;99.90
7676;DHT22;3880;51.464;-2.566;2022-07-29T20:46:14;22.40;99.90
7676;DHT22;3880;51.464;-2.566;2022-07-29T20:48:41;22.30;99.90
7676;DHT22;3880;51.464;-2.566;2022-07-29T21:17:03;21.90;99.90
7676;DHT22;3880;51.464;-2.566;2022-07-29T21:19:31;21.80;99.90
7676;DHT22;3880;51.464;-2.566;2022-07-29T21:21:59;21.90;99.90
7676;DHT22;3880;51.464;-2.566;2022-07-29T21:24:26;22.00;99.90
7676;DHT22;3880;51.464;-2.566;2022-07-29T21:26:53;21.80;99.90
7676;DHT22;3880;51.464;-2.566;2022-07-29T21:29:40;21.80;99.90
7676;DHT22;3880;51.464;-2.566;2022-07-29T21:32:08;21.80;99.90
7676;DHT22;3880;51.464;-2.566;2022-07-29T21:34:35;21.80;99.90
7676;DHT22;3880;51.464;-2.566;2022-07-29T21:37:02;21.70;99.90
7676;DHT22;3880;51.464;-2.566;2022-07-29T21:39:29;21.40;99.90
7676;DHT22;3880;51.464;-2.566;2022-07-29T21:41:56;21.40;99.90
7676;DHT22;3880;51.464;-2.566;2022-07-29T21:44:23;21.30;99.90
7676;DHT22;3880;51.464;-2.566;2022-07-29T21:52:03;21.40;99.90
7676;DHT22;3880;51.464;-2.566;2022-07-29T21:54:30;21.00;99.90
7676;DHT22;3880;51.464;-2.566;2022-07-29T21:56:57;21.10;99.90
7676;DHT22;3880;51.464;-2.566;2022-07-29T21:59:24;21.10;99.90
7676;DHT22;3880;51.464;-2.566;2022-07-29T22:01:51;21.00;99.90
7676;DHT22;3880;51.464;-2.566;2022-07-29T22:04:19;21.00;99.90
7676;DHT22;3880;51.464;-2.566;2022-07-29T22:06:46;20.80;99.90
7676;DHT22;3880;51.464;-2.566;2022-07-29T22:09:14;20.80;99.90
7676;DHT22;3880;51.464;-2.566;2022-07-29T22:11:41;20.70;99.90
7676;DHT22;3880;51.464;-2.566;2022-07-29T22:14:08;20.80;99.90
7676;DHT22;3880;51.464;-2.566;2022-07-29T22:16:36;20.80;99.90
7676;DHT22;3880;51.464;-2.566;2022-07-29T22:19:03;20.90;99.90
7676;DHT22;3880;51.464;-2.566;2022-07-29T22:21:30;20.90;99.90
7676;DHT22;3880;51.464;-2.566;2022-07-29T22:23:57;20.80;99.90
7676;DHT22;3880;51.464;-2.566;2022-07-29T22:26:29;20.70;99.90
7676;DHT22;3880;51.464;-2.566;2022-07-29T22:28:59;20.70;99.90
7676;DHT22;3880;51.464;-2.566;2022-07-29T22:31:27;20.70;99.90
7676;DHT22;3880;51.464;-2.566;2022-07-29T22:33:54;20.60;99.90
7676;DHT22;3880;51.464;-2.566;2022-07-29T22:36:22;20.50;99.90
7676;DHT22;3880;51.464;-2.566;2022-07-29T22:38:50;20.50;99.90
7676;DHT22;3880;51.464;-2.566;2022-07-29T22:41:18;20.50;99.90
7676;DHT22;3880;51.464;-2.566;2022-07-29T22:43:50;20.50;99.90
7676;DHT22;3880;51.464;-2.566;2022-07-29T22:46:19;20.40;99.90
7676;DHT22;3880;51.464;-2.566;2022-07-29T22:48:52;20.20;99.90
7676;DHT22;3880;51.464;-2.566;2022-07-29T22:54:59;20.20;99.90
7676;DHT22;3880;51.464;-2.566;2022-07-29T22:57:48;20.30;99.90
7676;DHT22;3880;51.464;-2.566;2022-07-29T23:00:39;20.30;99.90
7676;DHT22;3880;51.464;-2.566;2022-07-29T23:03:14;20.20;99.90
7676;DHT22;3880;51.464;-2.566;2022-07-29T23:09:36;20.20;99.90
